sensor_id;sensor_type;location;lat;lon;timestamp;pressure;altitude;pressure_sealevel;temperature;humidity
80164;BME280;69489;55.130;61.268;2023-05-07T00:01:57;98329.19;;;21.29;22.40
80164;BME280;69489;55.130;61.268;2023-05-07T00:04:23;98317.06;;;21.22;22.85
80164;BME280;69489;55.130;61.268;2023-05-07T00:06:48;98332.44;;;21.21;23.50
80164;BME280;69489;55.130;61.268;2023-05-07T00:09:15;98317.88;;;21.12;23.58
80164;BME280;69489;55.130;61.268;2023-05-07T00:11:41;98318.94;;;21.16;23.80
80164;BME280;69489;55.130;61.268;2023-05-07T00:14:07;98320.84;;;21.16;23.39
80164;BME280;69489;55.130;61.268;2023-05-07T00:16:33;98309.50;;;21.08;23.48
80164;BME280;69489;55.130;61.268;2023-05-07T00:18:59;98320.84;;;21.05;23.71
80164;BME280;69489;55.130;61.268;2023-05-07T00:21:25;98316.25;;;21.06;23.72
80164;BME280;69489;55.130;61.268;2023-05-07T00:23:54;98303.84;;;21.05;23.90
80164;BME280;69489;55.130;61.268;2023-05-07T00:26:19;98313.03;;;21.24;24.04
80164;BME280;69489;55.130;61.268;2023-05-07T00:28:46;98303.03;;;20.99;24.08
80164;BME280;69489;55.130;61.268;2023-05-07T00:31:11;98299.81;;;20.97;23.95
80164;BME280;69489;55.130;61.268;2023-05-07T00:33:38;98301.69;;;20.91;24.08
80164;BME280;69489;55.130;61.268;2023-05-07T00:36:04;98301.69;;;20.91;24.12
80164;BME280;69489;55.130;61.268;2023-05-07T00:38:30;98304.13;;;20.88;24.01
80164;BME280;69489;55.130;61.268;2023-05-07T00:40:55;98299.50;;;20.93;23.95
80164;BME280;69489;55.130;61.268;2023-05-07T00:43:21;98296.84;;;20.88;23.93
80164;BME280;69489;55.130;61.268;2023-05-07T00:45:47;98298.16;;;20.81;24.33
80164;BME280;69489;55.130;61.268;2023-05-07T00:48:13;98300.34;;;20.79;24.07
80164;BME280;69489;55.130;61.268;2023-05-07T00:50:39;98295.47;;;20.70;24.93
80164;BME280;69489;55.130;61.268;2023-05-07T00:53:06;98294.13;;;20.73;24.88
80164;BME280;69489;55.130;61.268;2023-05-07T00:55:32;98292.50;;;20.72;25.06
80164;BME280;69489;55.130;61.268;2023-05-07T00:57:58;98288.72;;;20.68;24.87
80164;BME280;69489;55.130;61.268;2023-05-07T01:00:24;98294.13;;;20.93;24.08
80164;BME280;69489;55.130;61.268;2023-05-07T01:02:50;98284.13;;;20.73;24.55
80164;BME280;69489;55.130;61.268;2023-05-07T01:05:18;98282.50;;;20.67;24.57
80164;BME280;69489;55.130;61.268;2023-05-07T01:07:46;98290.00;;;20.60;24.43
80164;BME280;69489;55.130;61.268;2023-05-07T01:10:13;98288.38;;;20.54;24.07
80164;BME280;69489;55.130;61.268;2023-05-07T01:12:40;98295.94;;;20.57;24.35
80164;BME280;69489;55.130;61.268;2023-05-07T01:15:08;98277.88;;;20.52;24.46
80164;BME280;69489;55.130;61.268;2023-05-07T01:17:41;98284.63;;;20.60;24.15
80164;BME280;69489;55.130;61.268;2023-05-07T01:20:08;98280.03;;;20.55;24.34
80164;BME280;69489;55.130;61.268;2023-05-07T01:22:37;98273.03;;;20.54;24.74
80164;BME280;69489;55.130;61.268;2023-05-07T01:25:04;98285.16;;;20.57;24.87
80164;BME280;69489;55.130;61.268;2023-05-07T01:27:31;98272.22;;;20.49;25.18
80164;BME280;69489;55.130;61.268;2023-05-07T01:29:58;98268.72;;;20.48;24.98
80164;BME280;69489;55.130;61.268;2023-05-07T01:32:31;98278.97;;;20.62;25.26
80164;BME280;69489;55.130;61.268;2023-05-07T01:34:57;98267.91;;;20.53;25.02
80164;BME280;69489;55.130;61.268;2023-05-07T01:37:24;98264.13;;;20.54;25.45
80164;BME280;69489;55.130;61.268;2023-05-07T01:39:52;98272.22;;;20.54;25.51
80164;BME280;69489;55.130;61.268;2023-05-07T01:42:18;98262.81;;;20.51;25.56
80164;BME280;69489;55.130;61.268;2023-05-07T01:44:44;98263.34;;;20.53;25.45
80164;BME280;69489;55.130;61.268;2023-05-07T01:47:10;98267.38;;;20.56;25.80
80164;BME280;69489;55.130;61.268;2023-05-07T01:49:37;98255.78;;;20.55;25.98
80164;BME280;69489;55.130;61.268;2023-05-07T01:52:03;98259.03;;;20.57;25.85
80164;BME280;69489;55.130;61.268;2023-05-07T01:54:29;98263.88;;;20.61;25.65
80164;BME280;69489;55.130;61.268;2023-05-07T01:56:56;98271.72;;;20.67;26.49
80164;BME280;69489;55.130;61.268;2023-05-07T01:59:22;98261.47;;;20.64;26.27
80164;BME280;69489;55.130;61.268;2023-05-07T02:01:48;98245.56;;;20.63;27.01
80164;BME280;69489;55.130;61.268;2023-05-07T02:04:14;98249.88;;;20.64;27.36
80164;BME280;69489;55.130;61.268;2023-05-07T02:06:40;98235.06;;;20.66;26.76
80164;BME280;69489;55.130;61.268;2023-05-07T02:09:05;98238.31;;;20.68;26.67
80164;BME280;69489;55.130;61.268;2023-05-07T02:11:32;98254.22;;;20.75;26.94
80164;BME280;69489;55.130;61.268;2023-05-07T02:13:57;98238.31;;;20.73;26.49
80164;BME280;69489;55.130;61.268;2023-05-07T02:16:23;98244.50;;;20.79;26.50
80164;BME280;69489;55.130;61.268;2023-05-07T02:18:49;98244.78;;;20.77;26.21
80164;BME280;69489;55.130;61.268;2023-05-07T02:21:15;98234.53;;;20.74;25.99
80164;BME280;69489;55.130;61.268;2023-05-07T02:23:41;98233.44;;;20.75;25.88
80164;BME280;69489;55.130;61.268;2023-05-07T02:26:06;98234.00;;;20.77;26.00
80164;BME280;69489;55.130;61.268;2023-05-07T02:28:32;98237.78;;;20.87;25.80
80164;BME280;69489;55.130;61.268;2023-05-07T02:31:02;98232.13;;;20.83;25.56
80164;BME280;69489;55.130;61.268;2023-05-07T02:33:28;98227.78;;;20.82;25.84
80164;BME280;69489;55.130;61.268;2023-05-07T02:35:55;98232.09;;;20.88;25.32
80164;BME280;69489;55.130;61.268;2023-05-07T02:38:22;98239.66;;;20.91;25.72
80164;BME280;69489;55.130;61.268;2023-05-07T02:40:48;98225.63;;;20.84;25.46
80164;BME280;69489;55.130;61.268;2023-05-07T02:43:14;98221.88;;;20.85;25.85
80164;BME280;69489;55.130;61.268;2023-05-07T02:45:39;98231.03;;;20.84;25.62
80164;BME280;69489;55.130;61.268;2023-05-07T02:48:05;98218.34;;;20.80;25.75
80164;BME280;69489;55.130;61.268;2023-05-07T02:50:31;98213.78;;;20.80;25.45
80164;BME280;69489;55.130;61.268;2023-05-07T02:52:58;98226.72;;;20.83;25.67
80164;BME280;69489;55.130;61.268;2023-05-07T02:55:24;98218.09;;;20.81;25.74
80164;BME280;69489;55.130;61.268;2023-05-07T02:57:49;98217.81;;;20.77;25.55
80164;BME280;69489;55.130;61.268;2023-05-07T03:00:17;98218.63;;;20.88;26.09
80164;BME280;69489;55.130;61.268;2023-05-07T03:02:44;98226.16;;;20.97;25.92
80164;BME280;69489;55.130;61.268;2023-05-07T03:05:10;98224.28;;;21.02;26.03
80164;BME280;69489;55.130;61.268;2023-05-07T03:07:36;98228.31;;;21.10;26.05
80164;BME280;69489;55.130;61.268;2023-05-07T03:10:02;98218.88;;;21.07;26.25
80164;BME280;69489;55.130;61.268;2023-05-07T03:12:29;98218.63;;;21.09;26.36
80164;BME280;69489;55.130;61.268;2023-05-07T03:14:55;98215.91;;;21.09;26.25
80164;BME280;69489;55.130;61.268;2023-05-07T03:17:21;98213.19;;;21.14;25.95
80164;BME280;69489;55.130;61.268;2023-05-07T03:19:47;98203.22;;;21.15;26.03
80164;BME280;69489;55.130;61.268;2023-05-07T03:22:12;98206.72;;;21.20;25.91
80164;BME280;69489;55.130;61.268;2023-05-07T03:24:38;98203.22;;;21.20;25.77
80164;BME280;69489;55.130;61.268;2023-05-07T03:27:04;98197.53;;;21.16;25.96
80164;BME280;69489;55.130;61.268;2023-05-07T03:29:30;98202.41;;;21.24;26.28
80164;BME280;69489;55.130;61.268;2023-05-07T03:31:55;98193.50;;;21.19;26.27
80164;BME280;69489;55.130;61.268;2023-05-07T03:34:21;98192.13;;;21.26;25.73
80164;BME280;69489;55.130;61.268;2023-05-07T03:36:50;98192.63;;;21.39;26.03
80164;BME280;69489;55.130;61.268;2023-05-07T03:39:16;98193.16;;;21.46;26.08
80164;BME280;69489;55.130;61.268;2023-05-07T03:41:42;98194.50;;;21.48;25.79
80164;BME280;69489;55.130;61.268;2023-05-07T03:44:08;98183.72;;;21.54;25.57
80164;BME280;69489;55.130;61.268;2023-05-07T03:46:34;98182.09;;;21.58;25.63
80164;BME280;69489;55.130;61.268;2023-05-07T03:49:00;98185.53;;;21.69;25.71
80164;BME280;69489;55.130;61.268;2023-05-07T03:51:25;98172.31;;;21.62;25.90
80164;BME280;69489;55.130;61.268;2023-05-07T03:53:52;98163.97;;;21.58;25.42
80164;BME280;69489;55.130;61.268;2023-05-07T03:56:23;98173.94;;;21.63;25.40
80164;BME280;69489;55.130;61.268;2023-05-07T03:58:52;98159.91;;;21.66;25.05
80164;BME280;69489;55.130;61.268;2023-05-07T04:01:18;98167.47;;;21.64;25.40
80164;BME280;69489;55.130;61.268;2023-05-07T04:03:43;98167.16;;;21.71;25.47
80164;BME280;69489;55.130;61.268;2023-05-07T04:06:09;98170.84;;;21.90;25.00
80164;BME280;69489;55.130;61.268;2023-05-07T04:08:36;98152.00;;;21.80;24.87
80164;BME280;69489;55.130;61.268;2023-05-07T04:11:01;98161.97;;;21.85;24.96
80164;BME280;69489;55.130;61.268;2023-05-07T04:13:27;98165.13;;;21.97;24.58
80164;BME280;69489;55.130;61.268;2023-05-07T04:15:55;98176.13;;;22.11;24.52
80164;BME280;69489;55.130;61.268;2023-05-07T04:18:20;98165.66;;;21.99;24.30
80164;BME280;69489;55.130;61.268;2023-05-07T04:20:47;98161.28;;;22.08;24.12
80164;BME280;69489;55.130;61.268;2023-05-07T04:23:14;98148.91;;;21.97;24.23
80164;BME280;69489;55.130;61.268;2023-05-07T04:25:40;98155.31;;;22.11;24.24
80164;BME280;69489;55.130;61.268;2023-05-07T04:28:07;98165.78;;;22.23;24.22
80164;BME280;69489;55.130;61.268;2023-05-07T04:30:32;98161.97;;;22.24;24.24
80164;BME280;69489;55.130;61.268;2023-05-07T04:32:58;98150.66;;;22.22;23.93
80164;BME280;69489;55.130;61.268;2023-05-07T04:35:24;98134.41;;;22.32;24.11
80164;BME280;69489;55.130;61.268;2023-05-07T04:37:50;98138.44;;;22.35;24.30
80164;BME280;69489;55.130;61.268;2023-05-07T04:40:16;98128.09;;;22.42;24.00
80164;BME280;69489;55.130;61.268;2023-05-07T04:42:41;98124.53;;;22.47;24.21
80164;BME280;69489;55.130;61.268;2023-05-07T04:45:07;98119.75;;;22.39;24.20
80164;BME280;69489;55.130;61.268;2023-05-07T04:47:34;98123.66;;;22.57;23.50
80164;BME280;69489;55.130;61.268;2023-05-07T04:50:00;98127.44;;;22.56;24.00
80164;BME280;69489;55.130;61.268;2023-05-07T04:52:25;98128.72;;;22.63;23.88
80164;BME280;69489;55.130;61.268;2023-05-07T04:54:52;98121.59;;;22.43;23.84
80164;BME280;69489;55.130;61.268;2023-05-07T04:57:17;98111.63;;;22.39;23.75
80164;BME280;69489;55.130;61.268;2023-05-07T04:59:44;98117.97;;;22.58;23.79
80164;BME280;69489;55.130;61.268;2023-05-07T05:02:10;98112.19;;;22.70;23.87
80164;BME280;69489;55.130;61.268;2023-05-07T05:04:36;98112.91;;;22.76;24.11
80164;BME280;69489;55.130;61.268;2023-05-07T05:07:02;98103.44;;;22.78;23.33
80164;BME280;69489;55.130;61.268;2023-05-07T05:09:31;98105.66;;;22.71;23.03
80164;BME280;69489;55.130;61.268;2023-05-07T05:11:57;98099.97;;;22.73;23.58
80164;BME280;69489;55.130;61.268;2023-05-07T05:14:23;98108.22;;;22.86;23.19
80164;BME280;69489;55.130;61.268;2023-05-07T05:16:48;98100.81;;;22.97;23.31
80164;BME280;69489;55.130;61.268;2023-05-07T05:19:14;98086.47;;;22.97;23.51
80164;BME280;69489;55.130;61.268;2023-05-07T05:21:40;98093.81;;;22.91;24.10
80164;BME280;69489;55.130;61.268;2023-05-07T05:24:06;98091.66;;;22.93;23.23
80164;BME280;69489;55.130;61.268;2023-05-07T05:26:32;98086.16;;;22.98;23.40
80164;BME280;69489;55.130;61.268;2023-05-07T05:28:58;98086.06;;;23.09;22.90
80164;BME280;69489;55.130;61.268;2023-05-07T05:31:23;98079.22;;;23.16;22.60
80164;BME280;69489;55.130;61.268;2023-05-07T05:33:49;98069.91;;;23.03;22.60
80164;BME280;69489;55.130;61.268;2023-05-07T05:36:15;98071.56;;;22.99;22.54
80164;BME280;69489;55.130;61.268;2023-05-07T05:38:41;98061.72;;;23.09;22.58
80164;BME280;69489;55.130;61.268;2023-05-07T05:41:07;98069.19;;;23.17;22.36
80164;BME280;69489;55.130;61.268;2023-05-07T05:43:33;98053.44;;;23.24;22.32
80164;BME280;69489;55.130;61.268;2023-05-07T05:45:59;98052.63;;;23.42;22.03
80164;BME280;69489;55.130;61.268;2023-05-07T05:48:25;98038.59;;;23.40;22.51
80164;BME280;69489;55.130;61.268;2023-05-07T05:50:51;98054.69;;;23.51;22.66
80164;BME280;69489;55.130;61.268;2023-05-07T05:53:17;98041.97;;;23.51;21.60
80164;BME280;69489;55.130;61.268;2023-05-07T05:55:43;98041.16;;;23.51;21.46
80164;BME280;69489;55.130;61.268;2023-05-07T05:58:09;98046.66;;;23.65;21.35
80164;BME280;69489;55.130;61.268;2023-05-07T06:00:34;98048.13;;;23.57;20.52
80164;BME280;69489;55.130;61.268;2023-05-07T06:03:00;98038.63;;;23.59;20.84
80164;BME280;69489;55.130;61.268;2023-05-07T06:05:26;98019.06;;;23.63;20.98
80164;BME280;69489;55.130;61.268;2023-05-07T06:07:52;98030.69;;;23.63;21.13
80164;BME280;69489;55.130;61.268;2023-05-07T06:10:18;98028.72;;;23.69;20.21
80164;BME280;69489;55.130;61.268;2023-05-07T06:12:44;98011.69;;;23.82;21.15
80164;BME280;69489;55.130;61.268;2023-05-07T06:15:10;98018.34;;;24.09;21.18
80164;BME280;69489;55.130;61.268;2023-05-07T06:17:35;98007.59;;;24.04;20.66
80164;BME280;69489;55.130;61.268;2023-05-07T06:20:01;98011.31;;;24.08;20.49
80164;BME280;69489;55.130;61.268;2023-05-07T06:22:28;98001.69;;;24.16;20.30
80164;BME280;69489;55.130;61.268;2023-05-07T06:24:53;98009.03;;;24.15;20.53
80164;BME280;69489;55.130;61.268;2023-05-07T06:27:19;97992.56;;;24.11;20.33
80164;BME280;69489;55.130;61.268;2023-05-07T06:29:45;97995.78;;;24.27;20.40
80164;BME280;69489;55.130;61.268;2023-05-07T06:32:12;97983.84;;;24.28;20.63
80164;BME280;69489;55.130;61.268;2023-05-07T06:34:39;98003.44;;;24.39;20.54
80164;BME280;69489;55.130;61.268;2023-05-07T06:37:06;97982.34;;;24.36;20.15
80164;BME280;69489;55.130;61.268;2023-05-07T06:39:32;97998.97;;;24.62;20.52
80164;BME280;69489;55.130;61.268;2023-05-07T06:42:00;97983.50;;;24.49;20.15
80164;BME280;69489;55.130;61.268;2023-05-07T06:44:27;97983.50;;;24.49;20.06
80164;BME280;69489;55.130;61.268;2023-05-07T06:46:53;97972.38;;;24.64;19.89
80164;BME280;69489;55.130;61.268;2023-05-07T06:49:19;97973.78;;;24.62;19.72
80164;BME280;69489;55.130;61.268;2023-05-07T06:51:45;97968.16;;;24.72;19.64
80164;BME280;69489;55.130;61.268;2023-05-07T06:54:10;97962.72;;;24.72;19.29
80164;BME280;69489;55.130;61.268;2023-05-07T06:56:36;97976.16;;;24.77;19.56
80164;BME280;69489;55.130;61.268;2023-05-07T06:59:02;97974.16;;;24.55;19.44
80164;BME280;69489;55.130;61.268;2023-05-07T07:01:28;97960.69;;;24.92;19.09
80164;BME280;69489;55.130;61.268;2023-05-07T07:03:54;97946.03;;;24.79;19.47
80164;BME280;69489;55.130;61.268;2023-05-07T07:06:20;97960.22;;;24.62;19.24
80164;BME280;69489;55.130;61.268;2023-05-07T07:08:46;97939.59;;;24.75;19.36
80164;BME280;69489;55.130;61.268;2023-05-07T07:11:12;97931.94;;;24.91;19.70
80164;BME280;69489;55.130;61.268;2023-05-07T07:13:37;97951.63;;;24.96;19.40
80164;BME280;69489;55.130;61.268;2023-05-07T07:16:03;97917.28;;;24.92;20.00
80164;BME280;69489;55.130;61.268;2023-05-07T07:18:29;97931.00;;;25.09;19.14
80164;BME280;69489;55.130;61.268;2023-05-07T07:20:55;97937.16;;;25.01;19.10
80164;BME280;69489;55.130;61.268;2023-05-07T07:23:20;97922.75;;;25.00;18.78
80164;BME280;69489;55.130;61.268;2023-05-07T07:25:46;97913.69;;;25.19;18.36
80164;BME280;69489;55.130;61.268;2023-05-07T07:28:12;97926.22;;;24.92;18.05
80164;BME280;69489;55.130;61.268;2023-05-07T07:30:38;97920.88;;;25.01;17.89
80164;BME280;69489;55.130;61.268;2023-05-07T07:33:04;97919.22;;;25.14;17.98
80164;BME280;69489;55.130;61.268;2023-05-07T07:35:31;97922.44;;;25.02;17.89
80164;BME280;69489;55.130;61.268;2023-05-07T07:37:57;97893.38;;;25.16;18.00
80164;BME280;69489;55.130;61.268;2023-05-07T07:40:23;97904.44;;;25.43;17.42
80164;BME280;69489;55.130;61.268;2023-05-07T07:42:49;97908.00;;;25.43;17.11
80164;BME280;69489;55.130;61.268;2023-05-07T07:45:14;97895.81;;;25.41;16.99
80164;BME280;69489;55.130;61.268;2023-05-07T07:47:40;97889.16;;;25.47;16.79
80164;BME280;69489;55.130;61.268;2023-05-07T07:50:06;97881.06;;;25.56;16.30
80164;BME280;69489;55.130;61.268;2023-05-07T07:52:32;97868.28;;;25.33;16.71
80164;BME280;69489;55.130;61.268;2023-05-07T07:54:58;97878.94;;;25.75;16.59
80164;BME280;69489;55.130;61.268;2023-05-07T07:57:24;97867.63;;;25.82;16.18
80164;BME280;69489;55.130;61.268;2023-05-07T07:59:50;97889.56;;;25.94;15.97
80164;BME280;69489;55.130;61.268;2023-05-07T08:02:16;97867.22;;;25.97;15.63
80164;BME280;69489;55.130;61.268;2023-05-07T08:04:42;97875.94;;;25.85;15.50
80164;BME280;69489;55.130;61.268;2023-05-07T08:07:12;97868.16;;;25.93;15.85
80164;BME280;69489;55.130;61.268;2023-05-07T08:09:38;97874.22;;;25.89;16.13
80164;BME280;69489;55.130;61.268;2023-05-07T08:12:05;97873.56;;;25.61;15.43
80164;BME280;69489;55.130;61.268;2023-05-07T08:14:31;97870.38;;;25.59;15.28
80164;BME280;69489;55.130;61.268;2023-05-07T08:16:56;97862.22;;;25.91;15.34
80164;BME280;69489;55.130;61.268;2023-05-07T08:19:22;97858.63;;;25.73;15.61
80164;BME280;69489;55.130;61.268;2023-05-07T08:21:48;97863.50;;;25.93;15.74
80164;BME280;69489;55.130;61.268;2023-05-07T08:24:14;97860.91;;;26.11;15.78
80164;BME280;69489;55.130;61.268;2023-05-07T08:26:40;97843.16;;;26.22;15.58
80164;BME280;69489;55.130;61.268;2023-05-07T08:29:06;97856.22;;;26.02;15.23
80164;BME280;69489;55.130;61.268;2023-05-07T08:31:32;97840.22;;;26.01;15.57
80164;BME280;69489;55.130;61.268;2023-05-07T08:33:58;97830.53;;;26.17;15.22
80164;BME280;69489;55.130;61.268;2023-05-07T08:36:24;97825.44;;;26.24;15.05
80164;BME280;69489;55.130;61.268;2023-05-07T08:38:51;97819.31;;;26.10;14.70
80164;BME280;69489;55.130;61.268;2023-05-07T08:41:17;97845.06;;;26.13;14.24
80164;BME280;69489;55.130;61.268;2023-05-07T08:43:47;97836.50;;;26.37;14.20
80164;BME280;69489;55.130;61.268;2023-05-07T08:46:19;97846.56;;;26.28;13.76
80164;BME280;69489;55.130;61.268;2023-05-07T08:48:51;97826.13;;;26.39;14.03
80164;BME280;69489;55.130;61.268;2023-05-07T08:51:19;97840.84;;;26.47;14.23
80164;BME280;69489;55.130;61.268;2023-05-07T08:53:46;97832.81;;;26.41;13.97
80164;BME280;69489;55.130;61.268;2023-05-07T08:56:14;97815.59;;;26.64;14.23
80164;BME280;69489;55.130;61.268;2023-05-07T08:58:42;97803.88;;;26.63;14.09
80164;BME280;69489;55.130;61.268;2023-05-07T09:01:09;97817.72;;;26.75;13.79
80164;BME280;69489;55.130;61.268;2023-05-07T09:03:39;97798.00;;;26.79;13.60
80164;BME280;69489;55.130;61.268;2023-05-07T09:06:05;97801.81;;;26.95;14.04
80164;BME280;69489;55.130;61.268;2023-05-07T09:08:32;97804.53;;;27.12;13.88
80164;BME280;69489;55.130;61.268;2023-05-07T09:10:58;97791.09;;;27.07;13.82
80164;BME280;69489;55.130;61.268;2023-05-07T09:13:23;97772.47;;;27.36;13.58
80164;BME280;69489;55.130;61.268;2023-05-07T09:15:50;97780.34;;;27.20;13.33
80164;BME280;69489;55.130;61.268;2023-05-07T09:18:15;97796.97;;;27.53;13.41
80164;BME280;69489;55.130;61.268;2023-05-07T09:20:41;97813.34;;;27.36;13.05
80164;BME280;69489;55.130;61.268;2023-05-07T09:23:07;97783.84;;;27.29;13.04
80164;BME280;69489;55.130;61.268;2023-05-07T09:25:35;97781.16;;;27.38;13.28
80164;BME280;69489;55.130;61.268;2023-05-07T09:28:03;97784.78;;;27.51;13.09
80164;BME280;69489;55.130;61.268;2023-05-07T09:30:30;97789.56;;;27.62;13.05
80164;BME280;69489;55.130;61.268;2023-05-07T09:32:57;97783.63;;;27.60;13.10
80164;BME280;69489;55.130;61.268;2023-05-07T09:35:25;97783.78;;;27.64;13.06
80164;BME280;69489;55.130;61.268;2023-05-07T09:37:53;97764.84;;;27.68;12.86
80164;BME280;69489;55.130;61.268;2023-05-07T09:40:24;97765.56;;;27.86;12.96
80164;BME280;69489;55.130;61.268;2023-05-07T09:42:51;97785.91;;;27.88;12.99
80164;BME280;69489;55.130;61.268;2023-05-07T09:45:25;97784.94;;;27.93;12.65
80164;BME280;69489;55.130;61.268;2023-05-07T09:47:55;97766.81;;;27.97;12.97
80164;BME280;69489;55.130;61.268;2023-05-07T09:50:26;97792.91;;;28.07;13.30
80164;BME280;69489;55.130;61.268;2023-05-07T09:52:54;97816.59;;;28.15;12.76
80164;BME280;69489;55.130;61.268;2023-05-07T09:55:21;97757.16;;;28.29;12.78
80164;BME280;69489;55.130;61.268;2023-05-07T09:57:50;97765.41;;;28.42;13.23
80164;BME280;69489;55.130;61.268;2023-05-07T10:00:21;97796.97;;;28.51;13.19
80164;BME280;69489;55.130;61.268;2023-05-07T10:02:51;97769.09;;;28.67;12.85
80164;BME280;69489;55.130;61.268;2023-05-07T10:05:18;97761.16;;;28.74;12.60
80164;BME280;69489;55.130;61.268;2023-05-07T10:07:46;97756.22;;;28.88;12.78
80164;BME280;69489;55.130;61.268;2023-05-07T10:10:12;97746.47;;;29.00;12.76
80164;BME280;69489;55.130;61.268;2023-05-07T10:12:38;97733.78;;;29.16;12.39
80164;BME280;69489;55.130;61.268;2023-05-07T10:15:10;97745.56;;;29.29;12.55
80164;BME280;69489;55.130;61.268;2023-05-07T10:17:37;97759.94;;;29.38;11.68
80164;BME280;69489;55.130;61.268;2023-05-07T10:20:04;97773.50;;;29.47;11.83
80164;BME280;69489;55.130;61.268;2023-05-07T10:22:36;97776.34;;;29.75;11.74
80164;BME280;69489;55.130;61.268;2023-05-07T10:25:06;97769.78;;;29.89;11.83
80164;BME280;69489;55.130;61.268;2023-05-07T10:27:36;97756.56;;;30.16;11.48
80164;BME280;69489;55.130;61.268;2023-05-07T10:33:07;97777.72;;;30.31;11.56
80164;BME280;69489;55.130;61.268;2023-05-07T10:35:45;97760.28;;;30.36;11.17
80164;BME280;69489;55.130;61.268;2023-05-07T10:38:12;97841.56;;;30.35;13.17
80164;BME280;69489;55.130;61.268;2023-05-07T10:40:38;97888.13;;;29.77;18.21
80164;BME280;69489;55.130;61.268;2023-05-07T10:43:05;97944.53;;;29.48;19.94
80164;BME280;69489;55.130;61.268;2023-05-07T10:45:31;97895.22;;;29.02;20.51
80164;BME280;69489;55.130;61.268;2023-05-07T10:48:13;97902.16;;;29.21;20.55
80164;BME280;69489;55.130;61.268;2023-05-07T10:50:41;97914.03;;;28.74;21.71
80164;BME280;69489;55.130;61.268;2023-05-07T10:55:42;97958.56;;;28.57;21.67
80164;BME280;69489;55.130;61.268;2023-05-07T11:00:46;97956.88;;;28.82;21.67
80164;BME280;69489;55.130;61.268;2023-05-07T11:03:12;97979.31;;;28.49;21.93
80164;BME280;69489;55.130;61.268;2023-05-07T11:05:40;97969.13;;;28.76;21.38
80164;BME280;69489;55.130;61.268;2023-05-07T11:08:07;97975.94;;;28.61;21.76
80164;BME280;69489;55.130;61.268;2023-05-07T11:13:19;98015.91;;;27.83;22.12
80164;BME280;69489;55.130;61.268;2023-05-07T11:16:04;98031.13;;;27.67;22.14
80164;BME280;69489;55.130;61.268;2023-05-07T11:18:47;98003.53;;;27.51;22.24
80164;BME280;69489;55.130;61.268;2023-05-07T11:23:58;98021.03;;;28.50;20.95
80164;BME280;69489;55.130;61.268;2023-05-07T11:26:24;98042.63;;;28.25;21.28
80164;BME280;69489;55.130;61.268;2023-05-07T11:28:51;98044.41;;;27.51;21.32
80164;BME280;69489;55.130;61.268;2023-05-07T11:31:21;98054.88;;;27.67;21.32
80164;BME280;69489;55.130;61.268;2023-05-07T11:33:48;98073.44;;;27.56;21.18
80164;BME280;69489;55.130;61.268;2023-05-07T11:36:14;98061.13;;;28.02;20.89
80164;BME280;69489;55.130;61.268;2023-05-07T11:38:40;98072.34;;;27.65;21.07
80164;BME280;69489;55.130;61.268;2023-05-07T11:41:07;98104.56;;;27.63;21.00
80164;BME280;69489;55.130;61.268;2023-05-07T11:43:33;98086.28;;;27.73;20.70
80164;BME280;69489;55.130;61.268;2023-05-07T11:46:08;98080.31;;;28.41;20.04
80164;BME280;69489;55.130;61.268;2023-05-07T11:48:34;98104.72;;;28.19;18.73
80164;BME280;69489;55.130;61.268;2023-05-07T11:51:06;98123.22;;;28.05;18.98
80164;BME280;69489;55.130;61.268;2023-05-07T11:53:38;98101.25;;;28.02;19.40
80164;BME280;69489;55.130;61.268;2023-05-07T11:56:09;98139.72;;;28.17;19.03
80164;BME280;69489;55.130;61.268;2023-05-07T11:58:35;98120.94;;;28.25;19.31
80164;BME280;69489;55.130;61.268;2023-05-07T12:01:01;98109.88;;;29.33;18.50
80164;BME280;69489;55.130;61.268;2023-05-07T12:03:27;98159.59;;;29.27;18.14
80164;BME280;69489;55.130;61.268;2023-05-07T12:05:53;98122.13;;;29.27;17.92
80164;BME280;69489;55.130;61.268;2023-05-07T12:08:20;98163.72;;;29.92;17.59
80164;BME280;69489;55.130;61.268;2023-05-07T12:10:50;98153.00;;;30.08;17.20
80164;BME280;69489;55.130;61.268;2023-05-07T12:13:24;98158.56;;;29.40;17.53
80164;BME280;69489;55.130;61.268;2023-05-07T12:15:52;98159.16;;;30.05;16.84
80164;BME280;69489;55.130;61.268;2023-05-07T12:18:20;98150.53;;;30.16;16.90
80164;BME280;69489;55.130;61.268;2023-05-07T12:20:47;98163.63;;;30.64;16.36
80164;BME280;69489;55.130;61.268;2023-05-07T12:23:13;98188.22;;;30.86;15.73
80164;BME280;69489;55.130;61.268;2023-05-07T12:25:40;98178.47;;;30.63;15.77
80164;BME280;69489;55.130;61.268;2023-05-07T12:28:16;98155.19;;;31.28;15.86
80164;BME280;69489;55.130;61.268;2023-05-07T12:30:43;98182.03;;;31.34;15.28
80164;BME280;69489;55.130;61.268;2023-05-07T12:33:09;98163.09;;;31.54;15.10
80164;BME280;69489;55.130;61.268;2023-05-07T12:35:38;98174.53;;;31.56;15.07
80164;BME280;69489;55.130;61.268;2023-05-07T12:38:12;98202.50;;;31.37;15.10
80164;BME280;69489;55.130;61.268;2023-05-07T12:40:49;98190.47;;;31.29;15.25
80164;BME280;69489;55.130;61.268;2023-05-07T12:43:25;98208.94;;;30.74;15.74
80164;BME280;69489;55.130;61.268;2023-05-07T12:45:55;98204.84;;;29.75;16.04
80164;BME280;69489;55.130;61.268;2023-05-07T12:48:22;98227.09;;;30.45;16.01
80164;BME280;69489;55.130;61.268;2023-05-07T12:50:53;98213.13;;;29.57;16.29
80164;BME280;69489;55.130;61.268;2023-05-07T12:53:21;98220.03;;;29.16;16.42
80164;BME280;69489;55.130;61.268;2023-05-07T12:55:49;98248.56;;;28.63;16.69
80164;BME280;69489;55.130;61.268;2023-05-07T12:58:29;98212.41;;;28.48;17.13
80164;BME280;69489;55.130;61.268;2023-05-07T13:00:56;98225.44;;;28.60;16.59
80164;BME280;69489;55.130;61.268;2023-05-07T13:03:31;98227.78;;;27.20;18.37